Time;durP1;ratioP1;P1;durP2;ratioP2;P2;SDS_P1;SDS_P2;PMS_P1;PMS_P2;Temp;Humidity;BMP_temperature;BMP_pressure;BME280_temperature;BME280_humidity;BME280_pressure;Samples;Min_cycle;Max_cycle;Signal;HPM_P1;HPM_P2
2022/05/18 00:00:34;;;;;;;7.87;5.33;;;;;;;16.84;100.00;101278.00;5113625;28;20209;-71
2022/05/18 00:03:08;;;;;;;6.93;5.33;;;;;;;16.80;100.00;101265.94;5114049;28;20539;-72
2022/05/18 00:05:37;;;;;;;5.70;5.33;;;;;;;16.72;100.00;101274.31;5114300;28;20193;-72
2022/05/18 00:08:05;;;;;;;6.17;5.97;;;;;;;16.67;100.00;101271.88;5113711;28;20191;-72
2022/05/18 00:10:33;;;;;;;7.17;6.97;;;;;;;16.71;100.00;101272.59;5113574;28;20208;-72
2022/05/18 00:13:00;;;;;;;6.53;5.20;;;;;;;16.68;100.00;101273.59;5113660;28;20189;-72
2022/05/18 00:15:28;;;;;;;5.80;5.50;;;;;;;16.68;100.00;101268.31;5113910;28;20185;-72
2022/05/18 00:17:55;;;;;;;5.60;5.40;;;;;;;16.66;100.00;101272.84;5113604;28;20181;-72
2022/05/18 00:20:23;;;;;;;5.83;5.50;;;;;;;16.65;100.00;101273.78;5114449;28;20208;-72
2022/05/18 00:22:52;;;;;;;7.73;5.90;;;;;;;16.64;100.00;101277.34;5114119;28;20177;-72
2022/05/18 00:25:22;;;;;;;5.50;5.30;;;;;;;16.58;100.00;101272.44;5113555;28;20185;-72
2022/05/18 00:27:50;;;;;;;6.73;6.20;;;;;;;16.57;100.00;101280.41;5113607;28;20199;-72
2022/05/18 00:30:20;;;;;;;7.93;5.47;;;;;;;16.52;100.00;101272.78;5113658;28;20220;-71
2022/05/18 00:32:47;;;;;;;5.83;5.73;;;;;;;16.51;100.00;101277.22;5113749;28;20234;-71
2022/05/18 00:35:14;;;;;;;6.23;6.00;;;;;;;16.51;100.00;101281.66;5113461;28;20185;-71
2022/05/18 00:37:41;;;;;;;5.97;5.77;;;;;;;16.50;100.00;101277.28;5113450;28;20526;-71
2022/05/18 00:40:09;;;;;;;5.87;5.37;;;;;;;16.50;100.00;101286.09;5113543;28;20236;-71
2022/05/18 00:42:36;;;;;;;5.40;5.17;;;;;;;16.48;100.00;101280.00;5113647;28;20193;-71
2022/05/18 00:45:03;;;;;;;6.03;5.57;;;;;;;16.46;100.00;101283.69;5113609;28;20177;-71
2022/05/18 00:47:30;;;;;;;4.87;4.77;;;;;;;16.45;100.00;101284.63;5113363;28;20658;-71
2022/05/18 00:50:01;;;;;;;5.30;5.20;;;;;;;16.42;100.00;101282.16;5113235;28;20687;-71
2022/05/18 00:52:38;;;;;;;5.90;5.70;;;;;;;16.37;100.00;101284.22;5117030;28;20182;-71
2022/05/18 00:55:09;;;;;;;6.03;5.87;;;;;;;16.34;100.00;101281.72;5117506;28;20219;-71
2022/05/18 00:57:42;;;;;;;5.97;5.50;;;;;;;16.29;100.00;101281.13;5117692;28;20182;-71
2022/05/18 01:00:13;;;;;;;5.30;5.20;;;;;;;16.24;100.00;101284.91;5117288;28;20578;-71
2022/05/18 01:02:45;;;;;;;5.97;5.60;;;;;;;16.21;100.00;101279.78;5117068;28;20670;-71
2022/05/18 01:05:17;;;;;;;6.37;5.30;;;;;;;16.20;100.00;101288.63;5117029;28;20174;-71
2022/05/18 01:07:51;;;;;;;7.20;5.10;;;;;;;16.16;100.00;101292.41;5116922;28;20185;-71
2022/05/18 01:10:18;;;;;;;6.87;5.40;;;;;;;16.12;100.00;101292.66;5116831;28;20209;-71
2022/05/18 01:12:46;;;;;;;5.53;5.47;;;;;;;16.10;100.00;101291.88;5117107;28;20193;-72
2022/05/18 01:15:16;;;;;;;6.47;6.23;;;;;;;16.07;100.00;101286.75;5116782;28;20200;-72
2022/05/18 01:17:46;;;;;;;5.93;5.63;;;;;;;16.07;100.00;101286.75;5117289;28;20184;-72
2022/05/18 01:20:19;;;;;;;6.43;6.13;;;;;;;16.00;100.00;101304.72;5116680;28;20201;-72
2022/05/18 01:23:09;;;;;;;6.47;5.93;;;;;;;15.92;100.00;101296.38;5117223;28;20175;-72
2022/05/18 01:25:57;;;;;;;6.13;5.70;;;;;;;15.90;100.00;101301.75;5116814;28;20196;-72
2022/05/18 01:28:28;;;;;;;6.33;5.73;;;;;;;15.87;100.00;101309.00;5116949;28;20240;-71
2022/05/18 01:30:55;;;;;;;5.90;5.80;;;;;;;15.86;100.00;101310.78;5116788;28;20180;-71
2022/05/18 01:33:22;;;;;;;5.43;5.27;;;;;;;15.83;100.00;101316.22;5116431;28;20247;-72
2022/05/18 01:35:49;;;;;;;5.13;5.10;;;;;;;15.80;100.00;101310.25;5116942;28;20189;-72
2022/05/18 01:38:16;;;;;;;5.10;5.00;;;;;;;15.79;100.00;101313.81;5116639;28;20688;-71
2022/05/18 01:40:59;;;;;;;6.13;5.93;;;;;;;15.80;100.00;101310.25;5116159;28;20736;-71
2022/05/18 01:43:34;;;;;;;6.00;5.80;;;;;;;15.74;100.00;101314.06;5116556;28;20680;-71
2022/05/18 01:46:05;;;;;;;5.70;5.50;;;;;;;15.78;100.00;101314.75;5116776;28;20181;-71
2022/05/18 01:48:35;;;;;;;6.40;6.20;;;;;;;15.74;100.00;101316.72;5116107;28;20627;-71
2022/05/18 01:51:03;;;;;;;6.03;6.03;;;;;;;15.69;100.00;101313.47;5116057;28;20250;-71
2022/05/18 01:53:32;;;;;;;6.20;5.77;;;;;;;15.61;100.00;101308.59;5116310;28;20196;-72
2022/05/18 01:55:59;;;;;;;9.03;6.30;;;;;;;15.57;100.00;101306.16;5116065;28;20188;-72
2022/05/18 01:58:26;;;;;;;6.00;5.70;;;;;;;15.54;100.00;101311.59;5116157;28;20239;-72
2022/05/18 02:01:20;;;;;;;6.20;6.10;;;;;;;15.49;100.00;101305.69;5097606;28;20216;-72
2022/05/18 02:03:48;;;;;;;5.97;5.77;;;;;;;15.45;100.00;101306.81;5116304;28;20264;-72
2022/05/18 02:06:15;;;;;;;5.40;4.93;;;;;;;15.47;100.00;101315.50;5115753;28;20216;-72
2022/05/18 02:08:42;;;;;;;6.87;6.57;;;;;;;15.45;100.00;101312.94;5115686;28;20702;-71
2022/05/18 02:11:13;;;;;;;5.50;5.40;;;;;;;15.43;100.00;101312.19;5115707;28;20208;-71
2022/05/18 02:13:40;;;;;;;7.13;6.50;;;;;;;15.48;100.00;101314.56;5115950;28;20258;-71
2022/05/18 02:16:07;;;;;;;5.97;5.77;;;;;;;15.46;100.00;101308.50;5115595;28;20276;-71
2022/05/18 02:18:33;;;;;;;6.30;5.90;;;;;;;15.46;100.00;101306.72;5115744;28;20217;-71
2022/05/18 02:21:05;;;;;;;6.23;5.93;;;;;;;15.50;100.00;101308.28;5115447;28;20292;-71
2022/05/18 02:23:32;;;;;;;6.10;5.93;;;;;;;15.46;100.00;101314.63;5115506;28;20201;-71
2022/05/18 02:26:04;;;;;;;7.80;5.47;;;;;;;15.47;100.00;101312.84;5115433;28;20212;-71
2022/05/18 02:28:31;;;;;;;5.53;5.43;;;;;;;15.47;100.00;101316.34;5115611;28;20182;-71
2022/05/18 02:30:58;;;;;;;9.33;6.13;;;;;;;15.45;100.00;101314.72;5115291;28;20209;-71
2022/05/18 02:33:24;;;;;;;6.13;6.03;;;;;;;15.44;100.00;101311.22;5115571;28;20235;-71
2022/05/18 02:35:51;;;;;;;6.13;5.93;;;;;;;15.49;100.00;101313.63;5115167;28;20212;-71
2022/05/18 02:38:17;;;;;;;6.90;6.20;;;;;;;15.44;100.00;101311.22;5115173;28;20217;-71
2022/05/18 02:40:44;;;;;;;5.93;5.80;;;;;;;15.40;100.00;101312.31;5115328;28;20598;-71
2022/05/18 02:43:10;;;;;;;5.27;5.07;;;;;;;15.36;100.00;101316.91;5115055;28;20216;-71
2022/05/18 02:45:37;;;;;;;5.20;5.00;;;;;;;15.33;100.00;101310.94;5115035;28;20208;-71
2022/05/18 02:48:04;;;;;;;6.37;6.07;;;;;;;15.33;100.00;101310.94;5115217;28;20193;-71
2022/05/18 02:50:30;;;;;;;5.83;5.63;;;;;;;15.32;100.00;101307.44;5114719;28;20254;-71
2022/05/18 02:52:57;;;;;;;5.73;5.33;;;;;;;15.34;100.00;101302.06;5115130;28;20587;-71
2022/05/18 02:58:08;;;;;;;5.20;4.83;;;;;;;15.30;100.00;101301.41;5115100;28;20197;-71
2022/05/18 03:00:34;;;;;;;6.47;6.27;;;;;;;15.31;100.00;101303.09;5114671;28;20725;-71
2022/05/18 03:03:01;;;;;;;6.13;5.93;;;;;;;15.33;100.00;101305.66;5114884;28;20205;-71
2022/05/18 03:05:28;;;;;;;5.77;5.67;;;;;;;15.34;100.00;101307.34;5114612;28;20694;-71
2022/05/18 03:07:54;;;;;;;6.90;6.50;;;;;;;15.38;100.00;101307.13;5115160;28;20213;-71
2022/05/18 03:10:21;;;;;;;8.53;6.10;;;;;;;15.45;100.00;101314.72;5115482;28;20247;-71
2022/05/18 03:12:47;;;;;;;17.13;5.03;;;;;;;15.45;100.00;101312.09;5114633;28;20682;-71
2022/05/18 03:15:13;;;;;;;5.50;5.30;;;;;;;15.48;100.00;101311.91;5113804;28;20216;-71
2022/05/18 03:17:40;;;;;;;7.07;6.67;;;;;;;15.52;100.00;101310.84;5114425;28;20221;-71
2022/05/18 03:20:08;;;;;;;5.63;5.30;;;;;;;15.52;100.00;101311.69;5114573;28;20224;-71
2022/05/18 03:25:21;;;;;;;4.27;4.20;;;;;;;15.56;100.00;101313.22;5114852;28;20198;-71
2022/05/18 03:27:49;;;;;;;4.67;4.47;;;;;;;15.59;100.00;101307.78;5114203;28;20188;-71
2022/05/18 03:30:18;;;;;;;5.27;4.83;;;;;;;15.58;100.00;101319.28;5114038;28;20209;-71
2022/05/18 03:32:44;;;;;;;5.67;5.30;;;;;;;15.58;100.00;101314.00;5114443;28;20196;-71
2022/05/18 03:35:11;;;;;;;5.50;5.40;;;;;;;15.57;100.00;101322.88;5114373;28;20216;-71
2022/05/18 03:37:38;;;;;;;5.10;5.00;;;;;;;15.55;100.00;101316.78;5114077;28;20209;-71
2022/05/18 03:40:05;;;;;;;5.63;5.43;;;;;;;15.55;100.00;101322.06;5113993;28;20263;-71
2022/05/18 03:42:32;;;;;;;4.97;4.57;;;;;;;15.57;100.00;101321.97;5114218;28;20236;-71
2022/05/18 03:44:58;;;;;;;5.27;5.07;;;;;;;15.59;100.00;101328.06;5113945;28;20185;-71
2022/05/18 03:47:25;;;;;;;6.57;5.27;;;;;;;15.60;100.00;101333.25;5113865;28;20663;-71
2022/05/18 03:49:52;;;;;;;5.20;5.00;;;;;;;15.61;100.00;101334.97;5114116;28;20225;-71
2022/05/18 03:52:18;;;;;;;7.27;5.07;;;;;;;15.67;100.00;101332.03;5113957;28;20217;-71
2022/05/18 03:54:44;;;;;;;4.70;4.60;;;;;;;15.71;100.00;101332.69;5113849;28;20598;-71
2022/05/18 03:57:11;;;;;;;5.27;5.17;;;;;;;15.74;100.00;101332.56;5114066;28;20220;-71
2022/05/18 03:59:39;;;;;;;4.80;4.60;;;;;;;15.81;100.00;101335.72;5113873;28;20288;-71
2022/05/18 04:02:05;;;;;;;4.80;4.70;;;;;;;15.82;100.00;101329.50;5114298;28;20266;-71
2022/05/18 04:04:32;;;;;;;4.83;4.43;;;;;;;15.83;100.00;101339.97;5113703;28;20655;-71
2022/05/18 04:06:58;;;;;;;6.10;4.97;;;;;;;15.82;100.00;101342.72;5114292;28;20605;-71
2022/05/18 04:09:25;;;;;;;5.33;4.70;;;;;;;15.81;100.00;101338.38;5113640;28;20292;-71
2022/05/18 04:11:51;;;;;;;4.87;4.67;;;;;;;15.81;100.00;101338.38;5113960;28;20212;-71
2022/05/18 04:14:18;;;;;;;4.50;4.30;;;;;;;15.80;100.00;101344.59;5113647;28;20230;-71
2022/05/18 04:16:48;;;;;;;6.67;5.10;;;;;;;15.84;100.00;101348.75;5113632;28;20255;-71
2022/05/18 04:19:16;;;;;;;4.90;4.60;;;;;;;15.81;100.00;101352.44;5113914;28;20251;-71
2022/05/18 04:21:42;;;;;;;4.73;4.63;;;;;;;15.88;100.00;101351.16;5113500;28;20244;-71
2022/05/18 04:24:08;;;;;;;4.80;4.60;;;;;;;15.89;100.00;101357.28;5113793;28;20193;-71
2022/05/18 04:26:35;;;;;;;4.60;4.43;;;;;;;15.91;100.00;101356.28;5117564;28;20234;-71
2022/05/18 04:29:02;;;;;;;5.07;4.53;;;;;;;15.95;100.00;101354.34;5117614;28;20235;-72
2022/05/18 04:31:28;;;;;;;5.57;5.27;;;;;;;15.99;100.00;101363.78;5117650;28;20213;-72
2022/05/18 04:33:55;;;;;;;5.30;5.20;;;;;;;16.00;100.00;101370.75;5117824;28;20173;-71
2022/05/18 04:36:21;;;;;;;5.63;5.33;;;;;;;16.05;100.00;101368.75;5117512;28;20216;-72
2022/05/18 04:38:47;;;;;;;7.07;4.60;;;;;;;16.07;100.00;101360.72;5117599;28;20239;-72
2022/05/18 04:41:14;;;;;;;8.03;4.97;;;;;;;16.13;100.00;101371.81;5118410;28;20197;-72
2022/05/18 04:43:40;;;;;;;5.33;5.23;;;;;;;16.20;100.00;101372.34;5117401;28;20608;-72
2022/05/18 04:46:07;;;;;;;5.17;5.07;;;;;;;16.32;100.00;101376.13;5117376;28;20227;-72
2022/05/18 04:48:34;;;;;;;5.33;5.13;;;;;;;16.36;100.00;101377.63;5117752;28;20599;-71
2022/05/18 04:51:05;;;;;;;6.97;4.70;;;;;;;16.43;100.00;101373.72;5117367;28;20239;-72
2022/05/18 04:53:34;;;;;;;5.13;4.93;;;;;;;16.48;100.00;101376.97;5117516;28;20177;-72
2022/05/18 04:56:01;;;;;;;5.80;4.70;;;;;;;16.53;100.00;101380.22;5117197;28;20235;-72
2022/05/18 04:58:28;;;;;;;4.80;4.70;;;;;;;16.61;100.00;101377.16;5117557;28;20185;-71
2022/05/18 05:01:04;;;;;;;4.83;4.63;;;;;;;16.71;100.00;101388.94;5117004;28;20220;-72
2022/05/18 05:03:30;;;;;;;4.80;4.60;;;;;;;16.74;100.00;101389.63;5098657;28;20238;-72
2022/05/18 05:06:00;;;;;;;4.50;4.33;;;;;;;16.83;100.00;101398.84;5116933;28;20188;-72
2022/05/18 05:08:27;;;;;;;5.73;4.80;;;;;;;16.95;100.00;101392.84;5117085;28;20606;-72
2022/05/18 05:10:53;;;;;;;4.87;4.67;;;;;;;17.00;100.00;101392.56;5117123;28;20205;-72
2022/05/18 05:13:20;;;;;;;5.63;5.50;;;;;;;17.07;100.00;101396.56;5117095;28;20206;-72
2022/05/18 05:15:46;;;;;;;5.07;4.77;;;;;;;17.13;100.00;101398.03;5116753;28;20711;-72
2022/05/18 05:18:13;;;;;;;4.53;4.37;;;;;;;17.23;100.00;101397.41;5116679;28;20272;-72
2022/05/18 05:20:39;;;;;;;4.30;4.10;;;;;;;17.29;100.00;101405.00;5116562;28;20243;-72
2022/05/18 05:23:06;;;;;;;4.20;4.10;;;;;;;17.39;100.00;101404.47;5117319;28;20246;-72
2022/05/18 05:25:32;;;;;;;5.00;4.80;;;;;;;17.49;100.00;101405.59;5116870;28;20226;-72
2022/05/18 05:27:59;;;;;;;5.30;4.90;;;;;;;17.58;100.00;101413.88;5116564;28;20178;-71
2022/05/18 05:30:27;;;;;;;5.03;4.57;;;;;;;17.66;100.00;101405.47;5116596;28;20238;-71
2022/05/18 05:32:53;;;;;;;11.13;6.73;;;;;;;17.76;100.00;101405.78;5098934;28;20279;-72
2022/05/18 05:35:19;;;;;;;6.40;5.90;;;;;;;17.83;100.00;101402.69;5116882;28;20205;-71
2022/05/18 05:37:46;;;;;;;7.17;6.87;;;;;;;17.94;100.00;101410.00;5115234;28;20193;-71
2022/05/18 05:40:13;;;;;;;8.77;8.37;;;;;;;18.02;100.00;101406.88;5116015;28;20258;-71
2022/05/18 05:42:40;;;;;;;9.20;8.00;;;;;;;18.12;100.00;101411.50;5116064;28;20288;-71
2022/05/18 05:45:08;;;;;;;6.93;6.37;;;;;;;18.20;100.00;101407.50;5116017;28;20181;-71
2022/05/18 05:47:34;;;;;;;6.63;6.07;;;;;;;18.30;100.00;101406.88;5115922;28;20189;-71
2022/05/18 05:50:01;;;;;;;7.27;6.97;;;;;;;18.35;100.00;101407.41;5116552;28;20220;-72
2022/05/18 05:52:27;;;;;;;6.87;6.47;;;;;;;18.41;100.00;101408.81;5115773;28;20217;-71
2022/05/18 05:54:54;;;;;;;5.97;5.70;;;;;;;18.53;100.00;101409.88;5080853;28;20208;-71
2022/05/18 05:57:22;;;;;;;5.63;5.20;;;;;;;18.60;100.00;101417.31;5115768;28;20212;-71
2022/05/18 05:59:48;;;;;;;6.33;5.60;;;;;;;18.67;100.00;101407.22;5115898;28;20219;-71
2022/05/18 06:02:16;;;;;;;6.07;5.27;;;;;;;18.75;100.00;101412.88;5115901;28;20209;-71
2022/05/18 06:04:43;;;;;;;4.57;4.23;;;;;;;18.83;100.00;101409.72;5116222;28;20181;-71
2022/05/18 06:07:10;;;;;;;4.40;4.30;;;;;;;18.92;100.00;101411.78;5115982;28;20181;-71
2022/05/18 06:09:36;;;;;;;5.53;4.93;;;;;;;19.01;100.00;101415.66;5115701;28;20236;-71
2022/05/18 06:12:03;;;;;;;4.23;4.13;;;;;;;19.15;100.00;101418.25;5115920;28;20264;-71
2022/05/18 06:14:29;;;;;;;3.70;3.53;;;;;;;19.29;96.04;101426.16;5116230;28;20212;-71
2022/05/18 06:16:56;;;;;;;3.63;3.63;;;;;;;19.45;91.66;101424.16;5115882;28;20217;-71
2022/05/18 06:19:22;;;;;;;3.67;3.57;;;;;;;19.62;91.57;101425.72;5115770;28;20229;-71
2022/05/18 06:21:50;;;;;;;3.50;3.30;;;;;;;19.75;91.27;101423.06;5115373;28;20217;-71
2022/05/18 06:24:18;;;;;;;3.43;3.33;;;;;;;19.88;89.55;101426.59;5115487;28;20189;-71
2022/05/18 06:26:44;;;;;;;4.53;3.10;;;;;;;20.01;88.54;101437.22;5115648;28;20216;-71
2022/05/18 06:29:11;;;;;;;3.27;3.10;;;;;;;20.24;85.72;101443.59;5115323;28;20213;-71
2022/05/18 06:31:37;;;;;;;3.47;3.47;;;;;;;20.29;86.15;101439.66;5115614;28;20201;-72
2022/05/18 06:34:06;;;;;;;3.57;3.37;;;;;;;20.40;86.11;101436.22;5115562;28;20181;-71
2022/05/18 06:36:34;;;;;;;2.70;2.70;;;;;;;20.52;85.55;101440.72;5115265;28;20231;-71
2022/05/18 06:39:01;;;;;;;5.40;3.23;;;;;;;20.71;85.67;101440.22;5115551;28;20717;-72
2022/05/18 06:41:33;;;;;;;3.40;3.20;;;;;;;20.80;84.92;101438.72;5115163;28;20177;-72
2022/05/18 06:44:04;;;;;;;3.00;3.00;;;;;;;20.91;85.01;101438.78;5114984;28;20304;-72
2022/05/18 06:46:33;;;;;;;2.77;2.57;;;;;;;20.99;83.80;101432.88;5115331;28;20583;-72
2022/05/18 06:49:01;;;;;;;2.97;2.97;;;;;;;21.06;83.90;101432.31;5114976;28;20213;-71
2022/05/18 06:51:32;;;;;;;3.17;2.87;;;;;;;21.27;83.40;101435.22;5114989;28;20280;-71
2022/05/18 06:53:58;;;;;;;6.07;3.03;;;;;;;21.34;82.45;101431.16;5115160;28;20205;-71
2022/05/18 06:56:28;;;;;;;2.90;2.80;;;;;;;21.40;82.21;101435.19;5115133;28;20213;-71
2022/05/18 06:58:56;;;;;;;2.73;2.70;;;;;;;21.46;82.42;101429.38;5114961;28;20224;-71
2022/05/18 07:01:24;;;;;;;2.47;2.37;;;;;;;21.59;80.56;101435.50;5114771;28;20598;-71
2022/05/18 07:03:51;;;;;;;2.43;2.43;;;;;;;21.64;80.32;101433.31;5114503;28;20209;-71
2022/05/18 07:06:26;;;;;;;2.40;2.30;;;;;;;21.72;79.53;101432.75;5115217;28;20161;-71
2022/05/18 07:08:54;;;;;;;2.73;2.57;;;;;;;21.85;75.89;101440.63;5114419;28;20232;-71
2022/05/18 07:11:22;;;;;;;2.80;2.60;;;;;;;21.91;77.11;101440.16;5114475;28;20217;-71
2022/05/18 07:13:51;;;;;;;2.13;2.10;;;;;;;22.06;75.02;101438.09;5114465;28;20185;-71
2022/05/18 07:16:20;;;;;;;2.20;2.20;;;;;;;22.08;75.42;101444.19;5114996;28;20188;-71
2022/05/18 07:18:47;;;;;;;3.03;2.27;;;;;;;22.15;70.83;101448.13;5114919;28;20236;-71
2022/05/18 07:21:15;;;;;;;3.00;2.80;;;;;;;22.26;70.21;101442.75;5114666;28;20268;-71
2022/05/18 07:23:42;;;;;;;3.73;2.70;;;;;;;22.37;69.30;101445.44;5114496;28;20609;-71
2022/05/18 07:26:08;;;;;;;2.00;2.00;;;;;;;22.44;70.39;101449.31;5114432;28;20275;-71
2022/05/18 07:28:34;;;;;;;2.90;2.53;;;;;;;22.60;68.93;101450.75;5114483;28;20200;-71
2022/05/18 07:31:01;;;;;;;2.33;2.23;;;;;;;22.59;69.28;101444.59;5114455;28;20209;-71
2022/05/18 07:33:27;;;;;;;6.53;2.60;;;;;;;22.70;68.70;101444.53;5114438;28;20195;-71
2022/05/18 07:35:54;;;;;;;3.40;2.50;;;;;;;22.73;69.67;101443.47;5114380;28;20205;-71
2022/05/18 07:38:23;;;;;;;4.73;2.40;;;;;;;22.88;67.91;101442.25;5114005;28;20260;-71
2022/05/18 07:41:08;;;;;;;3.83;2.43;;;;;;;22.98;69.92;101447.69;5114323;28;20177;-71
2022/05/18 07:43:35;;;;;;;2.63;2.53;;;;;;;23.06;69.89;101450.56;5113867;28;20258;-71
2022/05/18 07:46:01;;;;;;;2.20;2.20;;;;;;;23.05;69.00;101455.06;5114418;28;20224;-71
2022/05/18 07:48:28;;;;;;;4.13;2.73;;;;;;;23.10;69.30;101459.19;5113801;28;20250;-71
2022/05/18 07:50:54;;;;;;;3.50;2.38;;;;;;;23.05;69.79;101449.72;5114027;28;20224;-71
2022/05/18 07:53:21;;;;;;;2.43;2.33;;;;;;;23.10;70.46;101456.53;5114461;28;20583;-71
2022/05/18 07:55:48;;;;;;;2.77;2.67;;;;;;;23.14;69.89;101457.94;5114152;28;20215;-71
2022/05/18 07:58:16;;;;;;;2.28;2.17;;;;;;;23.19;70.02;101456.59;5113922;28;20201;-71
2022/05/18 08:00:44;;;;;;;2.60;2.13;;;;;;;23.25;67.45;101450.75;5113196;28;20240;-72
2022/05/18 08:03:12;;;;;;;2.73;2.50;;;;;;;23.37;67.00;101454.25;5113989;28;20633;-72
2022/05/18 08:05:44;;;;;;;2.65;2.65;;;;;;;23.35;67.68;101457.00;5114024;28;20234;-72
2022/05/18 08:08:19;;;;;;;2.22;2.13;;;;;;;23.47;65.94;101463.16;5114330;28;20293;-72
2022/05/18 08:16:17;;;;;;;3.22;2.97;;;;;;;23.65;64.95;101458.16;5113705;28;20199;-72
2022/05/18 08:18:44;;;;;;;2.40;2.40;;;;;;;23.70;63.70;101455.91;5113576;28;20213;-72
2022/05/18 08:21:11;;;;;;;3.00;1.98;;;;;;;23.86;64.15;101455.44;5113602;28;20550;-72
2022/05/18 08:23:38;;;;;;;2.50;2.50;;;;;;;23.96;66.64;101458.19;5113796;28;20200;-72
2022/05/18 08:26:05;;;;;;;2.20;2.20;;;;;;;24.01;62.66;101458.66;5113560;28;20234;-72
2022/05/18 08:28:32;;;;;;;2.83;2.63;;;;;;;24.14;65.57;101459.28;5113846;28;20181;-72
2022/05/18 08:30:59;;;;;;;7.35;2.30;;;;;;;24.16;65.70;101466.19;5113411;28;20181;-72
2022/05/18 08:33:28;;;;;;;4.22;2.72;;;;;;;24.05;64.98;101465.44;5113697;28;20177;-72
2022/05/18 08:35:54;;;;;;;2.42;2.42;;;;;;;24.06;66.26;101462.59;5113984;28;20194;-72
2022/05/18 08:38:21;;;;;;;2.63;2.08;;;;;;;24.14;66.06;101461.94;5113318;28;20195;-72
2022/05/18 08:41:07;;;;;;;2.72;2.63;;;;;;;24.17;65.71;101464.38;5113398;28;20205;-72
2022/05/18 08:43:38;;;;;;;8.35;2.85;;;;;;;24.20;65.70;101464.09;5113914;28;20193;-72
2022/05/18 08:46:29;;;;;;;2.75;2.75;;;;;;;24.13;66.64;101462.94;5113413;28;20220;-72
2022/05/18 08:49:19;;;;;;;2.63;2.53;;;;;;;24.15;67.58;101461.84;5113498;28;20205;-71
2022/05/18 08:52:00;;;;;;;2.45;2.40;;;;;;;24.22;67.00;101464.81;5113415;28;20229;-71
2022/05/18 08:54:33;;;;;;;1.83;1.83;;;;;;;24.44;64.52;101469.19;5113832;28;20174;-71
2022/05/18 08:57:02;;;;;;;4.10;4.00;;;;;;;24.43;65.29;101465.66;5113492;28;20165;-71
2022/05/18 08:59:37;;;;;;;3.70;2.83;;;;;;;24.37;65.68;101468.03;5113172;28;20239;-71
2022/05/18 09:02:12;;;;;;;3.90;2.33;;;;;;;24.58;65.93;101471.50;5113198;28;20217;-71
2022/05/18 09:04:50;;;;;;;2.72;2.63;;;;;;;24.60;67.09;101477.56;5113439;28;20189;-72
2022/05/18 09:07:43;;;;;;;2.35;2.35;;;;;;;24.65;63.61;101478.00;5113156;28;20655;-72
2022/05/18 09:10:23;;;;;;;4.60;2.85;;;;;;;24.76;64.85;101487.75;5113388;28;20616;-72
2022/05/18 09:12:50;;;;;;;3.40;2.88;;;;;;;24.68;64.50;101464.31;5115895;28;20205;-72
2022/05/18 09:15:20;;;;;;;3.15;2.30;;;;;;;24.62;64.55;101472.06;5116818;28;20181;-72
2022/05/18 09:17:59;;;;;;;2.22;2.22;;;;;;;24.56;63.74;101476.13;5117026;28;20220;-72
2022/05/18 09:20:51;;;;;;;2.85;2.78;;;;;;;24.66;65.74;101479.69;5117243;28;20254;-72
2022/05/18 09:23:33;;;;;;;3.30;3.20;;;;;;;24.69;66.06;101476.72;5116891;28;20194;-72
2022/05/18 09:26:14;;;;;;;3.30;3.00;;;;;;;24.66;66.53;101471.66;5116867;28;20199;-71
2022/05/18 09:28:50;;;;;;;2.47;2.40;;;;;;;24.66;64.20;101470.81;5116979;28;20764;-71
2022/05/18 09:31:44;;;;;;;2.90;2.80;;;;;;;24.62;63.41;101470.22;5117106;28;20173;-72
2022/05/18 09:34:33;;;;;;;4.00;2.75;;;;;;;24.62;62.31;101472.06;5117022;28;20177;-72
2022/05/18 09:36:59;;;;;;;3.33;3.08;;;;;;;24.73;65.36;101463.06;5116452;28;20510;-72
2022/05/18 09:39:30;;;;;;;2.90;2.80;;;;;;;24.79;65.31;101470.53;5116594;28;20237;-72
2022/05/18 09:42:01;;;;;;;3.28;3.13;;;;;;;24.77;65.74;101475.19;5116680;28;20205;-72
2022/05/18 09:44:44;;;;;;;2.67;2.67;;;;;;;24.75;64.88;101469.97;5116257;28;20193;-72
2022/05/18 09:47:14;;;;;;;3.50;3.35;;;;;;;24.71;65.84;101468.53;5116530;28;20619;-72
2022/05/18 09:49:45;;;;;;;4.60;2.65;;;;;;;24.83;64.31;101469.28;5116366;28;20695;-72
2022/05/18 09:52:15;;;;;;;2.30;2.30;;;;;;;25.09;65.67;101472.34;5116167;28;20567;-72
2022/05/18 09:54:42;;;;;;;2.47;2.38;;;;;;;25.05;62.96;101465.56;5116061;28;20170;-72
2022/05/18 09:57:16;;;;;;;3.05;2.50;;;;;;;25.04;63.82;101469.22;5116210;28;20250;-72
2022/05/18 09:59:47;;;;;;;3.03;2.92;;;;;;;25.12;64.26;101464.00;5116141;28;20204;-72
2022/05/18 10:08:11;;;;;;;2.38;2.38;;;;;;;25.44;60.35;101467.28;5115831;28;20209;-73
2022/05/18 10:10:38;;;;;;;2.78;2.78;;;;;;;25.57;61.32;101458.94;5115662;28;20232;-72
2022/05/18 10:13:15;;;;;;;2.60;2.50;;;;;;;25.63;61.33;101461.03;5115719;28;20212;-72
2022/05/18 10:16:04;;;;;;;2.58;2.47;;;;;;;25.64;61.01;101456.53;5115997;28;20530;-72
2022/05/18 10:18:48;;;;;;;2.70;2.30;;;;;;;25.57;60.39;101450.88;5115842;28;20161;-71
2022/05/18 10:21:26;;;;;;;2.60;2.50;;;;;;;25.69;59.52;101448.91;5115864;28;20200;-72
2022/05/18 10:24:04;;;;;;;2.67;2.38;;;;;;;25.75;59.82;101446.53;5115485;28;20193;-72
2022/05/18 10:27:23;;;;;;;3.10;3.00;;;;;;;25.81;60.19;101442.44;5115733;28;20222;-72
2022/05/18 10:30:03;;;;;;;3.15;2.60;;;;;;;25.86;60.37;101442.84;5098199;28;20220;-72
2022/05/18 10:32:31;;;;;;;2.80;2.67;;;;;;;25.79;58.23;101439.06;5097072;28;20188;-72
2022/05/18 10:35:00;;;;;;;2.58;2.42;;;;;;;25.77;61.10;101432.97;5115363;28;20178;-72
2022/05/18 10:37:37;;;;;;;2.70;2.70;;;;;;;25.78;60.81;101437.34;5115216;28;20186;-72
2022/05/18 10:40:09;;;;;;;5.63;3.30;;;;;;;25.74;58.99;101438.63;5115315;28;20216;-72
2022/05/18 10:42:51;;;;;;;10.63;3.13;;;;;;;25.75;59.66;101437.63;5115495;28;20588;-72
2022/05/18 10:45:32;;;;;;;2.50;2.50;;;;;;;25.71;60.38;101428.13;5115151;28;20173;-72
2022/05/18 10:48:18;;;;;;;4.53;2.70;;;;;;;25.81;58.82;101431.69;5115609;28;20212;-73
2022/05/18 10:50:45;;;;;;;2.72;2.67;;;;;;;25.88;58.04;101426.59;5115134;28;20199;-73
2022/05/18 10:53:17;;;;;;;8.55;2.60;;;;;;;26.08;57.89;101430.91;5115269;28;20174;-72
2022/05/18 10:55:56;;;;;;;2.25;2.25;;;;;;;26.10;56.47;101422.72;5115501;28;20525;-72
2022/05/18 10:58:35;;;;;;;2.47;2.47;;;;;;;26.32;53.80;101425.00;5115035;28;20250;-72
2022/05/18 11:01:13;;;;;;;2.03;2.03;;;;;;;26.45;55.40;101427.41;5115361;28;20173;-72
2022/05/18 11:03:58;;;;;;;5.25;2.22;;;;;;;26.55;50.66;101428.19;5114934;28;20199;-72
2022/05/18 11:06:31;;;;;;;2.10;2.05;;;;;;;26.50;51.82;101434.00;5114955;28;20234;-74
2022/05/18 11:09:07;;;;;;;2.50;2.40;;;;;;;26.59;51.70;101426.91;5114783;28;20213;-72
2022/05/18 11:11:51;;;;;;;2.58;2.28;;;;;;;26.55;53.86;101420.97;5114902;28;20233;-72
2022/05/18 11:14:45;;;;;;;2.13;2.13;;;;;;;26.69;50.96;101422.28;5114636;28;20174;-72
2022/05/18 11:17:28;;;;;;;2.63;2.58;;;;;;;26.60;51.20;101412.47;5114466;28;20239;-72
2022/05/18 11:20:07;;;;;;;2.33;2.33;;;;;;;26.65;52.41;101420.06;5096338;28;20575;-72
2022/05/18 11:22:50;;;;;;;5.72;5.43;;;;;;;26.70;52.29;101417.75;5114934;28;20184;-72
2022/05/18 11:25:23;;;;;;;1.85;1.85;;;;;;;26.85;49.34;101418.94;5114587;28;20238;-72
2022/05/18 11:28:39;;;;;;;5.47;2.25;;;;;;;26.84;50.95;101415.41;5114062;28;20615;-72
2022/05/18 11:31:29;;;;;;;1.92;1.92;;;;;;;26.81;51.27;101409.50;5114507;28;20201;-72
2022/05/18 11:34:08;;;;;;;2.50;2.17;;;;;;;26.87;49.37;101409.75;5114265;28;20219;-72
2022/05/18 11:36:47;;;;;;;2.38;2.35;;;;;;;27.09;47.27;101411.16;5114420;28;20208;-73
2022/05/18 11:39:31;;;;;;;2.35;2.17;;;;;;;27.08;50.25;101409.47;5114255;28;20269;-72
2022/05/18 11:42:23;;;;;;;1.80;1.80;;;;;;;27.01;51.34;101402.16;5114743;28;20196;-72
2022/05/18 11:45:12;;;;;;;2.83;2.03;;;;;;;27.09;51.91;101413.84;5109798;28;20221;-72
2022/05/18 11:47:56;;;;;;;7.95;2.13;;;;;;;27.06;48.48;101408.75;5114224;28;20679;-72
2022/05/18 11:51:00;;;;;;;2.85;1.98;;;;;;;27.08;50.44;101404.09;5115628;28;20241;-72
2022/05/18 11:53:38;;;;;;;2.28;2.28;;;;;;;27.15;48.89;101401.63;5113826;28;20248;-72
2022/05/18 11:56:19;;;;;;;2.15;2.15;;;;;;;27.04;49.19;101409.88;5114184;28;20212;-72